Time,TemperatureF,DewpointF,PressureIn,WindDirection,WindDirectionDegrees,WindSpeedMPH,WindSpeedGustMPH,Humidity,HourlyPrecipIn,Conditions,Clouds,dailyrainin,SoftwareType,DateUTC
2013-05-19 00:00:00,60.6,49.2,29.96,SW,225,1.7,-999.0,66,-99.99,,,0.00,Acu-Link.com,2013-05-19 04:00:00,
2013-05-19 00:15:00,59.9,49.3,29.96,SSW,202,0.0,-999.0,68,-99.99,,,0.00,Acu-Link.com,2013-05-19 04:15:00,
2013-05-19 00:30:00,59.0,49.2,29.96,SSW,202,0.0,-999.0,70,-99.99,,,0.00,Acu-Link.com,2013-05-19 04:30:00,
2013-05-19 00:46:00,58.5,49.1,29.96,SSW,202,1.7,-999.0,71,-99.99,,,0.00,Acu-Link.com,2013-05-19 04:46:00,
2013-05-19 01:01:00,58.1,49.5,29.96,SSW,202,0.0,-999.0,73,-99.99,,,0.00,Acu-Link.com,2013-05-19 05:01:00,
2013-05-19 01:16:00,57.4,49.2,29.95,SSW,202,0.0,-999.0,74,-99.99,,,0.00,Acu-Link.com,2013-05-19 05:16:00,
2013-05-19 01:31:00,57.0,49.2,29.95,SSW,202,0.0,-999.0,75,-99.99,,,0.00,Acu-Link.com,2013-05-19 05:31:00,
2013-05-19 01:46:00,56.7,48.9,29.94,SSW,202,0.0,-999.0,75,-99.99,,,0.00,Acu-Link.com,2013-05-19 05:46:00,
2013-05-19 02:01:00,56.1,49.0,29.94,SSW,202,0.0,-999.0,77,-99.99,,,0.00,Acu-Link.com,2013-05-19 06:01:00,
2013-05-19 02:17:00,55.8,49.0,29.94,SSW,202,0.0,-999.0,78,-99.99,,,0.00,Acu-Link.com,2013-05-19 06:17:00,
2013-05-19 02:32:00,55.4,49.0,29.93,SSW,202,0.0,-999.0,79,-99.99,,,0.00,Acu-Link.com,2013-05-19 06:32:00,
2013-05-19 02:47:00,55.4,49.0,29.93,SSW,202,1.1,-999.0,79,-99.99,,,0.00,Acu-Link.com,2013-05-19 06:47:00,
2013-05-19 03:02:00,55.4,49.0,29.93,SSW,202,0.0,-999.0,79,-99.99,,,0.00,Acu-Link.com,2013-05-19 07:02:00,
2013-05-19 03:17:00,55.2,48.8,29.92,SSW,202,0.0,-999.0,79,-99.99,,,0.00,Acu-Link.com,2013-05-19 07:17:00,
2013-05-19 03:32:00,55.0,48.9,29.92,SSW,202,0.0,-999.0,80,-99.99,,,0.00,Acu-Link.com,2013-05-19 07:32:00,
2013-05-19 03:47:00,54.7,48.7,29.92,SSW,202,0.0,-999.0,80,-99.99,,,0.00,Acu-Link.com,2013-05-19 07:47:00,
2013-05-19 04:02:00,54.5,48.5,29.92,SSW,202,0.0,-999.0,80,-99.99,,,0.00,Acu-Link.com,2013-05-19 08:02:00,
2013-05-19 04:17:00,54.5,48.5,29.92,SSW,202,0.0,-999.0,80,-99.99,,,0.00,Acu-Link.com,2013-05-19 08:17:00,
2013-05-19 04:33:00,54.1,48.1,29.92,SSW,202,0.0,-999.0,80,-99.99,,,0.00,Acu-Link.com,2013-05-19 08:33:00,
2013-05-19 04:48:00,54.1,48.1,29.92,SSW,202,0.0,-999.0,80,-99.99,,,0.00,Acu-Link.com,2013-05-19 08:48:00,
2013-05-19 05:03:00,54.0,48.3,29.93,SSW,202,0.0,-999.0,81,-99.99,,,0.00,Acu-Link.com,2013-05-19 09:03:00,
2013-05-19 05:18:00,53.6,47.9,29.93,SSW,202,0.0,-999.0,81,-99.99,,,0.00,Acu-Link.com,2013-05-19 09:18:00,
2013-05-19 05:33:00,52.9,47.6,29.93,SSW,202,0.0,-999.0,82,-99.99,,,0.00,Acu-Link.com,2013-05-19 09:33:00,
2013-05-19 05:48:00,52.0,47.0,29.94,SSW,202,0.0,-999.0,83,-99.99,,,0.00,Acu-Link.com,2013-05-19 09:48:00,
2013-05-19 06:04:00,51.3,46.6,29.94,SSW,202,0.0,-999.0,84,-99.99,,,0.00,Acu-Link.com,2013-05-19 10:04:00,
2013-05-19 06:19:00,50.7,46.7,29.94,SSW,202,0.0,-999.0,86,-99.99,,,0.00,Acu-Link.com,2013-05-19 10:19:00,
2013-05-19 06:34:00,50.5,47.4,29.94,SW,225,0.0,-999.0,89,-99.99,,,0.00,Acu-Link.com,2013-05-19 10:34:00,
2013-05-19 06:49:00,51.8,48.4,29.95,WNW,292,0.0,-999.0,88,-99.99,,,0.00,Acu-Link.com,2013-05-19 10:49:00,
2013-05-19 07:04:00,54.7,49.0,29.95,SW,225,0.0,-999.0,81,-99.99,,,0.00,Acu-Link.com,2013-05-19 11:04:00,
2013-05-19 07:19:00,55.8,49.4,29.95,SW,225,0.0,-999.0,79,-99.99,,,0.00,Acu-Link.com,2013-05-19 11:19:00,
2013-05-19 07:34:00,55.9,49.5,29.95,NW,315,0.0,-999.0,79,-99.99,,,0.00,Acu-Link.com,2013-05-19 11:34:00,
2013-05-19 07:50:00,57.2,50.1,29.94,NNE,22,0.0,-999.0,77,-99.99,,,0.00,Acu-Link.com,2013-05-19 11:50:00,
2013-05-19 08:05:00,58.5,51.3,29.94,SE,135,0.0,-999.0,77,-99.99,,,0.00,Acu-Link.com,2013-05-19 12:05:00,
2013-05-19 08:20:00,60.3,51.2,29.94,South,180,0.0,-999.0,72,-99.99,,,0.00,Acu-Link.com,2013-05-19 12:20:00,
2013-05-19 08:35:00,62.4,52.1,29.93,ESE,112,1.7,-999.0,69,-99.99,,,0.00,Acu-Link.com,2013-05-19 12:35:00,
2013-05-19 08:50:00,63.5,51.9,29.93,SW,225,2.7,-999.0,66,-99.99,,,0.00,Acu-Link.com,2013-05-19 12:50:00,
2013-05-19 09:05:00,66.0,53.9,29.93,SW,225,2.2,-999.0,65,-99.99,,,0.00,Acu-Link.com,2013-05-19 13:05:00,
2013-05-19 09:20:00,67.3,52.9,29.93,ESE,112,1.7,-999.0,60,-99.99,,,0.00,Acu-Link.com,2013-05-19 13:20:00,
2013-05-19 09:35:00,68.4,54.9,29.93,West,270,1.1,-999.0,62,-99.99,,,0.00,Acu-Link.com,2013-05-19 13:35:00,
2013-05-19 09:50:00,69.3,55.7,29.93,ENE,67,1.7,-999.0,62,-99.99,,,0.00,Acu-Link.com,2013-05-19 13:50:00,
2013-05-19 10:06:00,71.1,56.5,29.93,South,180,1.7,-999.0,60,-99.99,,,0.00,Acu-Link.com,2013-05-19 14:06:00,
2013-05-19 10:21:00,73.9,57.2,29.92,ESE,112,3.7,-999.0,56,-99.99,,,0.00,Acu-Link.com,2013-05-19 14:21:00,
2013-05-19 10:36:00,74.3,57.1,29.92,NNE,22,1.1,-999.0,55,-99.99,,,0.00,Acu-Link.com,2013-05-19 14:36:00,
2013-05-19 10:51:00,75.2,57.9,29.92,South,180,2.7,-999.0,55,-99.99,,,0.00,Acu-Link.com,2013-05-19 14:51:00,
2013-05-19 11:06:00,76.8,58.9,29.92,NNE,22,1.7,-999.0,54,-99.99,,,0.00,Acu-Link.com,2013-05-19 15:06:00,
2013-05-19 11:21:00,78.4,59.8,29.92,South,180,2.2,-999.0,53,-99.99,,,0.00,Acu-Link.com,2013-05-19 15:21:00,
2013-05-19 11:36:00,80.6,60.8,29.91,SE,135,2.2,-999.0,51,-99.99,,,0.00,Acu-Link.com,2013-05-19 15:36:00,
2013-05-19 11:51:00,80.8,58.1,29.91,ESE,112,2.2,-999.0,46,-99.99,,,0.00,Acu-Link.com,2013-05-19 15:51:00,
2013-05-19 12:06:00,82.0,57.9,29.90,ESE,112,3.2,-999.0,44,-99.99,,,0.00,Acu-Link.com,2013-05-19 16:06:00,
2013-05-19 12:22:00,82.0,59.8,29.89,ESE,112,0.0,-999.0,47,-99.99,,,0.00,Acu-Link.com,2013-05-19 16:22:00,
2013-05-19 12:37:00,81.7,57.6,29.89,NNE,22,1.7,-999.0,44,-99.99,,,0.00,Acu-Link.com,2013-05-19 16:37:00,
2013-05-19 12:52:00,83.8,60.2,29.88,SE,135,4.7,-999.0,45,-99.99,,,0.00,Acu-Link.com,2013-05-19 16:52:00,
2013-05-19 13:07:00,84.4,60.7,29.87,South,180,2.7,-999.0,45,-99.99,,,0.00,Acu-Link.com,2013-05-19 17:07:00,
2013-05-19 13:22:00,84.9,61.2,29.86,South,180,2.2,-999.0,45,-99.99,,,0.00,Acu-Link.com,2013-05-19 17:22:00,
2013-05-19 13:37:00,84.9,61.2,29.86,NNE,22,2.2,-999.0,45,-99.99,,,0.00,Acu-Link.com,2013-05-19 17:37:00,
2013-05-19 13:52:00,85.8,60.7,29.85,SSE,157,3.2,-999.0,43,-99.99,,,0.00,Acu-Link.com,2013-05-19 17:52:00,
2013-05-19 14:07:00,86.2,65.3,29.85,South,180,4.7,-999.0,50,-99.99,,,0.00,Acu-Link.com,2013-05-19 18:07:00,
2013-05-19 14:22:00,87.1,61.9,29.85,SSE,157,5.8,-999.0,43,-99.99,,,0.00,Acu-Link.com,2013-05-19 18:22:00,
2013-05-19 14:38:00,86.0,61.5,29.85,South,180,4.2,-999.0,44,-99.99,,,0.00,Acu-Link.com,2013-05-19 18:38:00,
2013-05-19 14:53:00,86.4,61.9,29.85,ENE,67,1.7,-999.0,44,-99.99,,,0.00,Acu-Link.com,2013-05-19 18:53:00,
2013-05-19 15:08:00,86.7,60.8,29.85,South,180,4.2,-999.0,42,-99.99,,,0.00,Acu-Link.com,2013-05-19 19:08:00,
2013-05-19 15:23:00,87.6,62.3,29.85,South,180,2.2,-999.0,43,-99.99,,,0.00,Acu-Link.com,2013-05-19 19:23:00,
2013-05-19 15:38:00,87.3,60.7,29.84,East,90,3.7,-999.0,41,-99.99,,,0.00,Acu-Link.com,2013-05-19 19:38:00,
2013-05-19 15:53:00,86.5,62.6,29.83,ESE,112,3.2,-999.0,45,-99.99,,,0.00,Acu-Link.com,2013-05-19 19:53:00,
2013-05-19 16:08:00,85.1,61.3,29.83,South,180,5.3,-999.0,45,-99.99,,,0.00,Acu-Link.com,2013-05-19 20:08:00,
2013-05-19 16:24:00,87.8,63.1,29.82,SE,135,2.2,-999.0,44,-99.99,,,0.00,Acu-Link.com,2013-05-19 20:24:00,
2013-05-19 16:39:00,87.8,63.1,29.81,SSE,157,1.1,-999.0,44,-99.99,,,0.00,Acu-Link.com,2013-05-19 20:39:00,
2013-05-19 16:54:00,87.6,62.3,29.80,South,180,2.2,-999.0,43,-99.99,,,0.00,Acu-Link.com,2013-05-19 20:54:00,
2013-05-19 17:09:00,88.2,62.2,29.80,ESE,112,2.7,-999.0,42,-99.99,,,0.00,Acu-Link.com,2013-05-19 21:09:00,
2013-05-19 17:24:00,87.4,62.8,29.80,SE,135,3.7,-999.0,44,-99.99,,,0.00,Acu-Link.com,2013-05-19 21:24:00,
2013-05-19 17:39:00,85.3,63.4,29.80,SSE,157,0.0,-999.0,48,-99.99,,,0.00,Acu-Link.com,2013-05-19 21:39:00,
2013-05-19 17:54:00,86.7,65.2,29.80,East,90,1.7,-999.0,49,-99.99,,,0.00,Acu-Link.com,2013-05-19 21:54:00,
2013-05-19 18:09:00,92.3,65.1,29.79,ENE,67,0.0,-999.0,41,-99.99,,,0.00,Acu-Link.com,2013-05-19 22:09:00,
2013-05-19 18:24:00,92.1,65.0,29.79,SE,135,2.2,-999.0,41,-99.99,,,0.00,Acu-Link.com,2013-05-19 22:24:00,
2013-05-19 18:40:00,92.3,64.4,29.78,ESE,112,3.2,-999.0,40,-99.99,,,0.00,Acu-Link.com,2013-05-19 22:40:00,
2013-05-19 18:55:00,89.8,64.3,29.77,SSE,157,1.7,-999.0,43,-99.99,,,0.00,Acu-Link.com,2013-05-19 22:55:00,
2013-05-19 19:10:00,87.4,63.4,29.77,South,180,2.2,-999.0,45,-99.99,,,0.00,Acu-Link.com,2013-05-19 23:10:00,
2013-05-19 19:25:00,86.7,63.4,29.77,South,180,0.0,-999.0,46,-99.99,,,0.00,Acu-Link.com,2013-05-19 23:25:00,
2013-05-19 19:40:00,86.0,63.4,29.77,SSE,157,1.1,-999.0,47,-99.99,,,0.00,Acu-Link.com,2013-05-19 23:40:00,
2013-05-19 19:55:00,82.0,63.2,29.77,NNE,22,0.0,-999.0,53,-99.99,,,0.00,Acu-Link.com,2013-05-19 23:55:00,
2013-05-19 20:10:00,81.0,62.8,29.77,NNE,22,0.0,-999.0,54,-99.99,,,0.00,Acu-Link.com,2013-05-20 00:10:00,
2013-05-19 20:25:00,79.7,63.1,29.77,NNE,22,0.0,-999.0,57,-99.99,,,0.00,Acu-Link.com,2013-05-20 00:25:00,
2013-05-19 20:40:00,77.2,62.7,29.77,NNE,22,0.0,-999.0,61,-99.99,,,0.00,Acu-Link.com,2013-05-20 00:40:00,
2013-05-19 20:56:00,74.8,63.1,29.78,NNE,22,0.0,-999.0,67,-99.99,,,0.00,Acu-Link.com,2013-05-20 00:56:00,
2013-05-19 21:11:00,74.1,61.6,29.78,NNE,22,0.0,-999.0,65,-99.99,,,0.00,Acu-Link.com,2013-05-20 01:11:00,
2013-05-19 21:26:00,72.7,62.3,29.79,NNE,22,0.0,-999.0,70,-99.99,,,0.00,Acu-Link.com,2013-05-20 01:26:00,
2013-05-19 21:41:00,71.8,61.9,29.79,NNE,22,0.0,-999.0,71,-99.99,,,0.00,Acu-Link.com,2013-05-20 01:41:00,
2013-05-19 21:56:00,71.2,62.1,29.80,NNE,22,0.0,-999.0,73,-99.99,,,0.00,Acu-Link.com,2013-05-20 01:56:00,
2013-05-19 22:11:00,71.1,62.0,29.80,SSW,202,1.7,-999.0,73,-99.99,,,0.00,Acu-Link.com,2013-05-20 02:11:00,
2013-05-19 22:26:00,71.4,62.7,29.79,ESE,112,2.2,-999.0,74,-99.99,,,0.00,Acu-Link.com,2013-05-20 02:26:00,
2013-05-19 22:41:00,71.2,62.5,29.80,SSW,202,0.0,-999.0,74,-99.99,,,0.00,Acu-Link.com,2013-05-20 02:41:00,
2013-05-19 22:56:00,71.1,62.8,29.80,SSE,157,3.2,-999.0,75,-99.99,,,0.00,Acu-Link.com,2013-05-20 02:56:00,
2013-05-19 23:12:00,71.6,62.9,29.81,WSW,247,1.7,-999.0,74,-99.99,,,0.00,Acu-Link.com,2013-05-20 03:12:00,
2013-05-19 23:27:00,71.1,62.8,29.81,SSW,202,1.7,-999.0,75,-99.99,,,0.00,Acu-Link.com,2013-05-20 03:27:00,
2013-05-19 23:42:00,70.5,62.6,29.81,SSW,202,0.0,-999.0,76,-99.99,,,0.00,Acu-Link.com,2013-05-20 03:42:00,
2013-05-19 23:57:00,70.3,62.7,29.82,NNE,22,0.0,-999.0,77,-99.99,,,0.00,Acu-Link.com,2013-05-20 03:57:00,